sensor_id;sensor_type;location;lat;lon;timestamp;P1;durP1;ratioP1;P2;durP2;ratioP2
53925;SDS011;39836;52.754;6.866;2023-12-14T00:00:45;21.60;;;19.30;;
53925;SDS011;39836;52.754;6.866;2023-12-14T00:03:11;22.67;;;18.92;;
53925;SDS011;39836;52.754;6.866;2023-12-14T00:05:36;22.80;;;20.23;;
53925;SDS011;39836;52.754;6.866;2023-12-14T00:08:02;24.15;;;20.77;;
53925;SDS011;39836;52.754;6.866;2023-12-14T00:10:28;22.80;;;20.40;;
53925;SDS011;39836;52.754;6.866;2023-12-14T00:12:53;25.70;;;22.55;;
53925;SDS011;39836;52.754;6.866;2023-12-14T00:15:20;27.38;;;21.92;;
53925;SDS011;39836;52.754;6.866;2023-12-14T00:17:46;23.40;;;20.63;;
53925;SDS011;39836;52.754;6.866;2023-12-14T00:20:12;26.23;;;20.42;;
53925;SDS011;39836;52.754;6.866;2023-12-14T00:22:37;24.17;;;21.20;;
53925;SDS011;39836;52.754;6.866;2023-12-14T00:25:06;26.05;;;20.42;;
53925;SDS011;39836;52.754;6.866;2023-12-14T00:27:32;20.70;;;17.90;;
53925;SDS011;39836;52.754;6.866;2023-12-14T00:29:57;21.88;;;18.27;;
53925;SDS011;39836;52.754;6.866;2023-12-14T00:32:23;22.15;;;18.50;;
53925;SDS011;39836;52.754;6.866;2023-12-14T00:34:49;21.27;;;19.02;;
53925;SDS011;39836;52.754;6.866;2023-12-14T00:37:14;21.27;;;18.98;;
53925;SDS011;39836;52.754;6.866;2023-12-14T00:39:40;22.05;;;19.30;;
53925;SDS011;39836;52.754;6.866;2023-12-14T00:42:06;21.77;;;19.52;;
53925;SDS011;39836;52.754;6.866;2023-12-14T00:44:31;20.85;;;18.75;;
53925;SDS011;39836;52.754;6.866;2023-12-14T00:46:57;20.63;;;18.23;;
53925;SDS011;39836;52.754;6.866;2023-12-14T00:49:23;21.48;;;19.33;;
53925;SDS011;39836;52.754;6.866;2023-12-14T00:51:49;21.58;;;19.27;;
53925;SDS011;39836;52.754;6.866;2023-12-14T00:54:15;20.98;;;18.90;;
53925;SDS011;39836;52.754;6.866;2023-12-14T00:56:40;21.83;;;19.52;;
53925;SDS011;39836;52.754;6.866;2023-12-14T00:59:06;20.20;;;18.20;;
53925;SDS011;39836;52.754;6.866;2023-12-14T01:01:32;21.20;;;19.00;;
53925;SDS011;39836;52.754;6.866;2023-12-14T01:03:58;21.50;;;19.27;;
53925;SDS011;39836;52.754;6.866;2023-12-14T01:06:24;20.73;;;18.45;;
53925;SDS011;39836;52.754;6.866;2023-12-14T01:08:50;20.08;;;18.13;;
53925;SDS011;39836;52.754;6.866;2023-12-14T01:11:16;21.35;;;19.15;;
53925;SDS011;39836;52.754;6.866;2023-12-14T01:13:42;20.65;;;18.50;;
53925;SDS011;39836;52.754;6.866;2023-12-14T01:16:07;20.50;;;18.42;;
53925;SDS011;39836;52.754;6.866;2023-12-14T01:18:33;18.73;;;16.83;;
53925;SDS011;39836;52.754;6.866;2023-12-14T01:20:59;19.73;;;17.73;;
53925;SDS011;39836;52.754;6.866;2023-12-14T01:23:24;21.50;;;19.40;;
53925;SDS011;39836;52.754;6.866;2023-12-14T01:25:50;18.60;;;16.70;;
53925;SDS011;39836;52.754;6.866;2023-12-14T01:28:16;19.83;;;17.58;;
53925;SDS011;39836;52.754;6.866;2023-12-14T01:30:41;20.17;;;18.17;;
53925;SDS011;39836;52.754;6.866;2023-12-14T01:33:07;20.83;;;18.63;;
53925;SDS011;39836;52.754;6.866;2023-12-14T01:35:33;20.65;;;18.08;;
53925;SDS011;39836;52.754;6.866;2023-12-14T01:37:58;20.45;;;18.05;;
53925;SDS011;39836;52.754;6.866;2023-12-14T01:40:24;18.77;;;16.77;;
53925;SDS011;39836;52.754;6.866;2023-12-14T01:42:49;18.65;;;16.65;;
53925;SDS011;39836;52.754;6.866;2023-12-14T01:45:15;19.67;;;17.55;;
53925;SDS011;39836;52.754;6.866;2023-12-14T01:47:44;21.52;;;18.02;;
53925;SDS011;39836;52.754;6.866;2023-12-14T01:50:10;20.23;;;17.83;;
53925;SDS011;39836;52.754;6.866;2023-12-14T01:52:36;19.92;;;16.63;;
53925;SDS011;39836;52.754;6.866;2023-12-14T01:55:01;19.17;;;17.15;;
53925;SDS011;39836;52.754;6.866;2023-12-14T01:57:28;19.40;;;17.05;;
53925;SDS011;39836;52.754;6.866;2023-12-14T01:59:53;19.08;;;16.70;;
53925;SDS011;39836;52.754;6.866;2023-12-14T02:02:19;20.20;;;16.90;;
53925;SDS011;39836;52.754;6.866;2023-12-14T02:04:45;19.20;;;15.07;;
53925;SDS011;39836;52.754;6.866;2023-12-14T02:07:11;18.50;;;15.25;;
53925;SDS011;39836;52.754;6.866;2023-12-14T02:09:36;19.88;;;16.25;;
53925;SDS011;39836;52.754;6.866;2023-12-14T02:12:02;19.15;;;16.02;;
53925;SDS011;39836;52.754;6.866;2023-12-14T02:14:28;18.70;;;16.23;;
53925;SDS011;39836;52.754;6.866;2023-12-14T02:16:54;22.17;;;18.10;;
53925;SDS011;39836;52.754;6.866;2023-12-14T02:19:19;22.20;;;16.80;;
53925;SDS011;39836;52.754;6.866;2023-12-14T02:21:45;21.35;;;17.73;;
53925;SDS011;39836;52.754;6.866;2023-12-14T02:24:11;24.00;;;17.80;;
53925;SDS011;39836;52.754;6.866;2023-12-14T02:26:36;22.63;;;17.88;;
53925;SDS011;39836;52.754;6.866;2023-12-14T02:29:02;20.33;;;18.10;;
53925;SDS011;39836;52.754;6.866;2023-12-14T02:31:27;22.73;;;17.33;;
53925;SDS011;39836;52.754;6.866;2023-12-14T02:33:53;23.33;;;17.77;;
53925;SDS011;39836;52.754;6.866;2023-12-14T02:36:19;26.33;;;18.80;;
53925;SDS011;39836;52.754;6.866;2023-12-14T02:38:44;25.10;;;18.38;;
53925;SDS011;39836;52.754;6.866;2023-12-14T02:41:10;31.52;;;19.70;;
53925;SDS011;39836;52.754;6.866;2023-12-14T02:43:36;22.90;;;17.75;;
53925;SDS011;39836;52.754;6.866;2023-12-14T02:46:03;24.92;;;18.38;;
53925;SDS011;39836;52.754;6.866;2023-12-14T02:48:29;20.08;;;17.58;;
53925;SDS011;39836;52.754;6.866;2023-12-14T02:50:55;23.45;;;18.52;;
53925;SDS011;39836;52.754;6.866;2023-12-14T02:53:20;21.38;;;17.15;;
53925;SDS011;39836;52.754;6.866;2023-12-14T02:55:46;19.58;;;17.05;;
53925;SDS011;39836;52.754;6.866;2023-12-14T02:58:12;22.83;;;17.38;;
53925;SDS011;39836;52.754;6.866;2023-12-14T03:00:37;24.52;;;18.08;;
53925;SDS011;39836;52.754;6.866;2023-12-14T03:03:03;19.80;;;17.70;;
53925;SDS011;39836;52.754;6.866;2023-12-14T03:05:29;21.30;;;17.25;;
53925;SDS011;39836;52.754;6.866;2023-12-14T03:07:54;25.25;;;18.27;;
53925;SDS011;39836;52.754;6.866;2023-12-14T03:10:20;22.35;;;16.52;;
53925;SDS011;39836;52.754;6.866;2023-12-14T03:12:46;22.05;;;18.52;;
53925;SDS011;39836;52.754;6.866;2023-12-14T03:15:11;19.63;;;16.85;;
53925;SDS011;39836;52.754;6.866;2023-12-14T03:17:37;24.13;;;18.35;;
53925;SDS011;39836;52.754;6.866;2023-12-14T03:20:03;20.10;;;17.38;;
53925;SDS011;39836;52.754;6.866;2023-12-14T03:22:30;23.08;;;18.80;;
53925;SDS011;39836;52.754;6.866;2023-12-14T03:24:56;21.38;;;17.15;;
53925;SDS011;39836;52.754;6.866;2023-12-14T03:27:21;20.48;;;17.60;;
53925;SDS011;39836;52.754;6.866;2023-12-14T03:29:48;20.02;;;17.27;;
53925;SDS011;39836;52.754;6.866;2023-12-14T03:32:14;21.05;;;17.58;;
53925;SDS011;39836;52.754;6.866;2023-12-14T03:34:39;20.98;;;16.35;;
53925;SDS011;39836;52.754;6.866;2023-12-14T03:37:06;20.02;;;17.00;;
53925;SDS011;39836;52.754;6.866;2023-12-14T03:39:31;21.17;;;16.17;;
53925;SDS011;39836;52.754;6.866;2023-12-14T03:41:57;21.42;;;16.55;;
53925;SDS011;39836;52.754;6.866;2023-12-14T03:44:23;22.13;;;18.40;;
53925;SDS011;39836;52.754;6.866;2023-12-14T03:46:49;18.98;;;16.95;;
53925;SDS011;39836;52.754;6.866;2023-12-14T03:49:15;19.95;;;16.42;;
53925;SDS011;39836;52.754;6.866;2023-12-14T03:51:41;18.50;;;15.52;;
53925;SDS011;39836;52.754;6.866;2023-12-14T03:54:06;21.08;;;17.48;;
53925;SDS011;39836;52.754;6.866;2023-12-14T03:56:32;17.85;;;15.32;;
53925;SDS011;39836;52.754;6.866;2023-12-14T03:58:58;18.45;;;16.05;;
53925;SDS011;39836;52.754;6.866;2023-12-14T04:01:23;16.80;;;14.88;;
53925;SDS011;39836;52.754;6.866;2023-12-14T04:03:49;19.60;;;16.13;;
53925;SDS011;39836;52.754;6.866;2023-12-14T04:06:15;21.55;;;15.18;;
53925;SDS011;39836;52.754;6.866;2023-12-14T04:08:41;17.77;;;15.88;;
53925;SDS011;39836;52.754;6.866;2023-12-14T04:11:07;19.23;;;15.82;;
53925;SDS011;39836;52.754;6.866;2023-12-14T04:13:33;20.30;;;16.48;;
53925;SDS011;39836;52.754;6.866;2023-12-14T04:15:59;18.20;;;15.57;;
53925;SDS011;39836;52.754;6.866;2023-12-14T04:18:25;20.88;;;16.63;;
53925;SDS011;39836;52.754;6.866;2023-12-14T04:20:51;19.95;;;15.77;;
53925;SDS011;39836;52.754;6.866;2023-12-14T04:23:17;20.75;;;16.08;;
53925;SDS011;39836;52.754;6.866;2023-12-14T04:25:43;21.50;;;16.15;;
53925;SDS011;39836;52.754;6.866;2023-12-14T04:28:09;21.25;;;15.95;;
53925;SDS011;39836;52.754;6.866;2023-12-14T04:30:34;18.88;;;15.48;;
53925;SDS011;39836;52.754;6.866;2023-12-14T04:33:00;20.60;;;16.13;;
53925;SDS011;39836;52.754;6.866;2023-12-14T04:35:25;22.95;;;16.70;;
53925;SDS011;39836;52.754;6.866;2023-12-14T04:37:51;22.27;;;17.20;;
53925;SDS011;39836;52.754;6.866;2023-12-14T04:40:17;22.70;;;16.85;;
53925;SDS011;39836;52.754;6.866;2023-12-14T04:42:43;22.25;;;17.25;;
53925;SDS011;39836;52.754;6.866;2023-12-14T04:45:09;21.23;;;16.17;;
53925;SDS011;39836;52.754;6.866;2023-12-14T04:47:35;24.50;;;16.75;;
53925;SDS011;39836;52.754;6.866;2023-12-14T04:50:01;21.50;;;15.85;;
53925;SDS011;39836;52.754;6.866;2023-12-14T04:52:27;22.40;;;16.48;;
53925;SDS011;39836;52.754;6.866;2023-12-14T04:54:53;20.75;;;16.00;;
53925;SDS011;39836;52.754;6.866;2023-12-14T04:57:19;19.48;;;14.95;;
53925;SDS011;39836;52.754;6.866;2023-12-14T04:59:44;21.77;;;16.15;;
53925;SDS011;39836;52.754;6.866;2023-12-14T05:02:10;18.13;;;15.73;;
53925;SDS011;39836;52.754;6.866;2023-12-14T05:04:36;23.05;;;16.73;;
53925;SDS011;39836;52.754;6.866;2023-12-14T05:07:01;20.98;;;17.42;;
53925;SDS011;39836;52.754;6.866;2023-12-14T05:09:27;21.63;;;17.10;;
53925;SDS011;39836;52.754;6.866;2023-12-14T05:11:53;19.75;;;16.73;;
53925;SDS011;39836;52.754;6.866;2023-12-14T05:14:19;20.92;;;16.63;;
53925;SDS011;39836;52.754;6.866;2023-12-14T05:16:44;16.63;;;14.05;;
53925;SDS011;39836;52.754;6.866;2023-12-14T05:19:10;17.63;;;15.60;;
53925;SDS011;39836;52.754;6.866;2023-12-14T05:21:37;18.50;;;15.13;;
53925;SDS011;39836;52.754;6.866;2023-12-14T05:24:03;18.05;;;14.45;;
53925;SDS011;39836;52.754;6.866;2023-12-14T05:26:29;19.23;;;14.57;;
53925;SDS011;39836;52.754;6.866;2023-12-14T05:28:55;16.27;;;13.93;;
53925;SDS011;39836;52.754;6.866;2023-12-14T05:31:20;19.33;;;14.82;;
53925;SDS011;39836;52.754;6.866;2023-12-14T05:33:46;16.65;;;14.40;;
53925;SDS011;39836;52.754;6.866;2023-12-14T05:36:12;16.55;;;14.65;;
53925;SDS011;39836;52.754;6.866;2023-12-14T05:38:38;17.83;;;14.65;;
53925;SDS011;39836;52.754;6.866;2023-12-14T05:41:04;21.05;;;15.57;;
53925;SDS011;39836;52.754;6.866;2023-12-14T05:43:30;17.35;;;14.15;;
53925;SDS011;39836;52.754;6.866;2023-12-14T05:45:56;15.68;;;13.98;;
53925;SDS011;39836;52.754;6.866;2023-12-14T05:48:21;16.13;;;14.43;;
53925;SDS011;39836;52.754;6.866;2023-12-14T05:50:47;16.77;;;13.70;;
53925;SDS011;39836;52.754;6.866;2023-12-14T05:53:13;15.88;;;13.57;;
53925;SDS011;39836;52.754;6.866;2023-12-14T05:55:38;18.58;;;14.23;;
53925;SDS011;39836;52.754;6.866;2023-12-14T05:58:06;15.38;;;13.75;;
53925;SDS011;39836;52.754;6.866;2023-12-14T06:00:32;17.92;;;14.93;;
53925;SDS011;39836;52.754;6.866;2023-12-14T06:03:00;17.30;;;14.65;;
53925;SDS011;39836;52.754;6.866;2023-12-14T06:05:26;19.52;;;16.15;;
53925;SDS011;39836;52.754;6.866;2023-12-14T06:07:51;19.17;;;15.05;;
53925;SDS011;39836;52.754;6.866;2023-12-14T06:10:17;19.25;;;15.30;;
53925;SDS011;39836;52.754;6.866;2023-12-14T06:12:43;21.92;;;16.23;;
53925;SDS011;39836;52.754;6.866;2023-12-14T06:15:09;20.73;;;15.98;;
53925;SDS011;39836;52.754;6.866;2023-12-14T06:17:36;19.42;;;15.63;;
53925;SDS011;39836;52.754;6.866;2023-12-14T06:20:04;19.88;;;15.65;;
53925;SDS011;39836;52.754;6.866;2023-12-14T06:22:33;20.85;;;16.77;;
53925;SDS011;39836;52.754;6.866;2023-12-14T06:25:00;22.20;;;16.75;;
53925;SDS011;39836;52.754;6.866;2023-12-14T06:27:28;21.95;;;17.63;;
53925;SDS011;39836;52.754;6.866;2023-12-14T06:29:53;20.13;;;16.60;;
53925;SDS011;39836;52.754;6.866;2023-12-14T06:32:19;21.08;;;17.15;;
53925;SDS011;39836;52.754;6.866;2023-12-14T06:34:45;20.17;;;16.40;;
53925;SDS011;39836;52.754;6.866;2023-12-14T06:37:10;24.08;;;17.85;;
53925;SDS011;39836;52.754;6.866;2023-12-14T06:39:36;20.23;;;13.95;;
53925;SDS011;39836;52.754;6.866;2023-12-14T06:42:02;18.77;;;15.73;;
53925;SDS011;39836;52.754;6.866;2023-12-14T06:44:28;22.92;;;16.00;;
53925;SDS011;39836;52.754;6.866;2023-12-14T06:46:55;19.88;;;15.02;;
53925;SDS011;39836;52.754;6.866;2023-12-14T06:49:23;19.85;;;16.48;;
53925;SDS011;39836;52.754;6.866;2023-12-14T06:51:49;21.98;;;16.85;;
53925;SDS011;39836;52.754;6.866;2023-12-14T06:54:15;18.55;;;15.48;;
53925;SDS011;39836;52.754;6.866;2023-12-14T06:56:41;21.55;;;16.60;;
53925;SDS011;39836;52.754;6.866;2023-12-14T06:59:06;20.52;;;15.15;;
53925;SDS011;39836;52.754;6.866;2023-12-14T07:01:32;18.42;;;14.27;;
53925;SDS011;39836;52.754;6.866;2023-12-14T07:03:58;18.10;;;14.27;;
53925;SDS011;39836;52.754;6.866;2023-12-14T07:06:23;18.83;;;14.18;;
53925;SDS011;39836;52.754;6.866;2023-12-14T07:08:49;20.42;;;14.60;;
53925;SDS011;39836;52.754;6.866;2023-12-14T07:11:15;22.17;;;17.02;;
53925;SDS011;39836;52.754;6.866;2023-12-14T07:13:42;21.88;;;16.70;;
53925;SDS011;39836;52.754;6.866;2023-12-14T07:16:09;19.88;;;14.77;;
53925;SDS011;39836;52.754;6.866;2023-12-14T07:18:36;17.83;;;14.18;;
53925;SDS011;39836;52.754;6.866;2023-12-14T07:21:05;17.60;;;13.80;;
53925;SDS011;39836;52.754;6.866;2023-12-14T07:23:32;19.40;;;14.95;;
53925;SDS011;39836;52.754;6.866;2023-12-14T07:25:58;18.60;;;14.60;;
53925;SDS011;39836;52.754;6.866;2023-12-14T07:28:24;18.10;;;14.10;;
53925;SDS011;39836;52.754;6.866;2023-12-14T07:30:50;20.33;;;15.68;;
53925;SDS011;39836;52.754;6.866;2023-12-14T07:33:15;19.02;;;15.57;;
53925;SDS011;39836;52.754;6.866;2023-12-14T07:35:42;18.52;;;15.73;;
53925;SDS011;39836;52.754;6.866;2023-12-14T07:38:08;21.00;;;17.23;;
53925;SDS011;39836;52.754;6.866;2023-12-14T07:40:37;18.77;;;15.35;;
53925;SDS011;39836;52.754;6.866;2023-12-14T07:43:06;18.30;;;15.07;;
53925;SDS011;39836;52.754;6.866;2023-12-14T07:45:33;16.50;;;13.88;;
53925;SDS011;39836;52.754;6.866;2023-12-14T07:47:59;19.40;;;14.82;;
53925;SDS011;39836;52.754;6.866;2023-12-14T07:50:25;16.38;;;14.18;;
53925;SDS011;39836;52.754;6.866;2023-12-14T07:52:51;19.17;;;14.20;;
53925;SDS011;39836;52.754;6.866;2023-12-14T07:55:17;19.55;;;15.10;;
53925;SDS011;39836;52.754;6.866;2023-12-14T07:57:43;17.92;;;14.73;;
53925;SDS011;39836;52.754;6.866;2023-12-14T08:00:09;19.65;;;15.00;;
53925;SDS011;39836;52.754;6.866;2023-12-14T08:02:35;19.15;;;13.40;;
53925;SDS011;39836;52.754;6.866;2023-12-14T08:05:02;17.17;;;13.77;;
53925;SDS011;39836;52.754;6.866;2023-12-14T08:07:27;20.13;;;16.13;;
53925;SDS011;39836;52.754;6.866;2023-12-14T08:09:54;22.48;;;15.05;;
53925;SDS011;39836;52.754;6.866;2023-12-14T08:12:20;20.77;;;15.45;;
53925;SDS011;39836;52.754;6.866;2023-12-14T08:14:47;19.52;;;15.77;;
53925;SDS011;39836;52.754;6.866;2023-12-14T08:17:13;22.77;;;17.15;;
53925;SDS011;39836;52.754;6.866;2023-12-14T08:19:38;19.77;;;15.70;;
53925;SDS011;39836;52.754;6.866;2023-12-14T08:22:04;20.92;;;14.93;;
53925;SDS011;39836;52.754;6.866;2023-12-14T08:24:30;20.35;;;14.75;;
53925;SDS011;39836;52.754;6.866;2023-12-14T08:26:55;23.17;;;15.85;;
53925;SDS011;39836;52.754;6.866;2023-12-14T08:29:21;20.38;;;15.95;;
53925;SDS011;39836;52.754;6.866;2023-12-14T08:31:47;20.05;;;14.98;;
53925;SDS011;39836;52.754;6.866;2023-12-14T08:34:13;20.75;;;15.98;;
53925;SDS011;39836;52.754;6.866;2023-12-14T08:36:39;19.25;;;14.82;;
53925;SDS011;39836;52.754;6.866;2023-12-14T08:39:05;20.38;;;15.82;;
53925;SDS011;39836;52.754;6.866;2023-12-14T08:41:31;20.73;;;16.52;;
53925;SDS011;39836;52.754;6.866;2023-12-14T08:43:57;22.88;;;17.25;;
53925;SDS011;39836;52.754;6.866;2023-12-14T08:46:23;22.13;;;16.67;;
53925;SDS011;39836;52.754;6.866;2023-12-14T08:48:48;21.13;;;17.30;;
53925;SDS011;39836;52.754;6.866;2023-12-14T08:51:14;22.30;;;17.17;;
53925;SDS011;39836;52.754;6.866;2023-12-14T08:53:40;22.55;;;16.83;;
53925;SDS011;39836;52.754;6.866;2023-12-14T08:56:06;20.10;;;16.08;;
53925;SDS011;39836;52.754;6.866;2023-12-14T08:58:33;24.25;;;17.10;;
53925;SDS011;39836;52.754;6.866;2023-12-14T09:00:59;24.67;;;17.13;;
53925;SDS011;39836;52.754;6.866;2023-12-14T09:03:24;22.52;;;17.23;;
53925;SDS011;39836;52.754;6.866;2023-12-14T09:05:51;28.92;;;19.13;;
53925;SDS011;39836;52.754;6.866;2023-12-14T09:08:17;25.05;;;18.10;;
53925;SDS011;39836;52.754;6.866;2023-12-14T09:10:43;25.35;;;18.33;;
53925;SDS011;39836;52.754;6.866;2023-12-14T09:13:09;24.80;;;18.13;;
53925;SDS011;39836;52.754;6.866;2023-12-14T09:15:35;25.35;;;18.45;;
53925;SDS011;39836;52.754;6.866;2023-12-14T09:18:01;25.67;;;18.58;;
53925;SDS011;39836;52.754;6.866;2023-12-14T09:20:27;24.67;;;18.58;;
53925;SDS011;39836;52.754;6.866;2023-12-14T09:22:53;25.67;;;17.48;;
53925;SDS011;39836;52.754;6.866;2023-12-14T09:25:19;24.33;;;17.65;;
53925;SDS011;39836;52.754;6.866;2023-12-14T09:27:45;25.02;;;18.23;;
53925;SDS011;39836;52.754;6.866;2023-12-14T09:30:11;26.23;;;17.08;;
53925;SDS011;39836;52.754;6.866;2023-12-14T09:32:37;29.48;;;18.63;;
53925;SDS011;39836;52.754;6.866;2023-12-14T09:35:05;24.67;;;18.15;;
53925;SDS011;39836;52.754;6.866;2023-12-14T09:37:31;24.17;;;18.17;;
53925;SDS011;39836;52.754;6.866;2023-12-14T09:39:57;24.02;;;18.77;;
53925;SDS011;39836;52.754;6.866;2023-12-14T09:42:22;28.10;;;17.70;;
53925;SDS011;39836;52.754;6.866;2023-12-14T09:44:48;24.95;;;18.13;;
53925;SDS011;39836;52.754;6.866;2023-12-14T09:47:15;24.90;;;18.60;;
53925;SDS011;39836;52.754;6.866;2023-12-14T09:49:41;28.48;;;18.48;;
53925;SDS011;39836;52.754;6.866;2023-12-14T09:52:08;27.92;;;18.75;;
53925;SDS011;39836;52.754;6.866;2023-12-14T09:54:34;23.63;;;17.83;;
53925;SDS011;39836;52.754;6.866;2023-12-14T09:57:00;22.23;;;17.30;;
53925;SDS011;39836;52.754;6.866;2023-12-14T09:59:25;23.08;;;17.48;;
53925;SDS011;39836;52.754;6.866;2023-12-14T10:01:51;22.10;;;17.25;;
53925;SDS011;39836;52.754;6.866;2023-12-14T10:04:17;23.67;;;17.63;;
53925;SDS011;39836;52.754;6.866;2023-12-14T10:06:45;25.95;;;17.27;;
53925;SDS011;39836;52.754;6.866;2023-12-14T10:09:12;21.38;;;17.65;;
53925;SDS011;39836;52.754;6.866;2023-12-14T10:11:40;25.75;;;17.70;;
53925;SDS011;39836;52.754;6.866;2023-12-14T10:14:18;23.33;;;17.48;;
53925;SDS011;39836;52.754;6.866;2023-12-14T10:16:46;25.73;;;17.67;;
53925;SDS011;39836;52.754;6.866;2023-12-14T10:19:13;23.33;;;16.73;;
53925;SDS011;39836;52.754;6.866;2023-12-14T10:21:38;25.27;;;16.13;;
53925;SDS011;39836;52.754;6.866;2023-12-14T10:24:04;23.98;;;17.27;;
53925;SDS011;39836;52.754;6.866;2023-12-14T10:26:31;24.92;;;17.98;;
53925;SDS011;39836;52.754;6.866;2023-12-14T10:28:56;24.17;;;17.20;;
53925;SDS011;39836;52.754;6.866;2023-12-14T10:31:22;21.98;;;17.17;;
53925;SDS011;39836;52.754;6.866;2023-12-14T10:33:49;24.15;;;17.08;;
53925;SDS011;39836;52.754;6.866;2023-12-14T10:36:18;23.45;;;16.92;;
53925;SDS011;39836;52.754;6.866;2023-12-14T10:38:48;24.65;;;16.52;;
53925;SDS011;39836;52.754;6.866;2023-12-14T10:41:17;24.42;;;17.45;;
53925;SDS011;39836;52.754;6.866;2023-12-14T10:43:43;22.88;;;17.10;;
53925;SDS011;39836;52.754;6.866;2023-12-14T10:46:12;24.17;;;16.85;;
53925;SDS011;39836;52.754;6.866;2023-12-14T10:48:39;23.58;;;16.70;;
53925;SDS011;39836;52.754;6.866;2023-12-14T10:51:09;24.98;;;16.90;;
53925;SDS011;39836;52.754;6.866;2023-12-14T10:53:39;27.92;;;18.73;;
53925;SDS011;39836;52.754;6.866;2023-12-14T10:56:09;29.13;;;17.98;;
53925;SDS011;39836;52.754;6.866;2023-12-14T10:58:46;28.40;;;17.80;;
53925;SDS011;39836;52.754;6.866;2023-12-14T11:01:23;22.70;;;17.52;;
53925;SDS011;39836;52.754;6.866;2023-12-14T11:03:49;25.25;;;16.77;;
53925;SDS011;39836;52.754;6.866;2023-12-14T11:06:20;26.23;;;17.48;;
53925;SDS011;39836;52.754;6.866;2023-12-14T11:08:47;27.25;;;17.70;;
53925;SDS011;39836;52.754;6.866;2023-12-14T11:11:13;26.90;;;18.33;;
53925;SDS011;39836;52.754;6.866;2023-12-14T11:13:45;28.30;;;18.80;;
53925;SDS011;39836;52.754;6.866;2023-12-14T11:16:20;33.10;;;18.95;;
53925;SDS011;39836;52.754;6.866;2023-12-14T11:18:51;33.38;;;17.75;;
53925;SDS011;39836;52.754;6.866;2023-12-14T11:24:35;27.10;;;17.48;;
53925;SDS011;39836;52.754;6.866;2023-12-14T11:27:04;25.65;;;16.83;;
53925;SDS011;39836;52.754;6.866;2023-12-14T11:29:31;27.20;;;17.48;;
53925;SDS011;39836;52.754;6.866;2023-12-14T11:31:57;26.70;;;17.40;;
53925;SDS011;39836;52.754;6.866;2023-12-14T11:34:26;28.42;;;17.95;;
53925;SDS011;39836;52.754;6.866;2023-12-14T11:36:53;24.27;;;16.92;;
53925;SDS011;39836;52.754;6.866;2023-12-14T11:39:22;26.75;;;17.15;;
53925;SDS011;39836;52.754;6.866;2023-12-14T11:42:00;26.40;;;17.55;;
53925;SDS011;39836;52.754;6.866;2023-12-14T11:44:27;25.92;;;18.02;;
53925;SDS011;39836;52.754;6.866;2023-12-14T11:46:53;31.55;;;18.27;;
53925;SDS011;39836;52.754;6.866;2023-12-14T11:49:19;28.88;;;18.10;;
53925;SDS011;39836;52.754;6.866;2023-12-14T11:51:47;25.08;;;16.50;;
53925;SDS011;39836;52.754;6.866;2023-12-14T11:54:17;26.48;;;17.73;;
53925;SDS011;39836;52.754;6.866;2023-12-14T11:56:49;25.60;;;18.10;;
53925;SDS011;39836;52.754;6.866;2023-12-14T11:59:16;25.30;;;19.13;;
53925;SDS011;39836;52.754;6.866;2023-12-14T12:01:55;29.88;;;18.52;;
53925;SDS011;39836;52.754;6.866;2023-12-14T12:04:22;27.42;;;18.65;;
53925;SDS011;39836;52.754;6.866;2023-12-14T12:06:48;29.77;;;18.35;;
53925;SDS011;39836;52.754;6.866;2023-12-14T12:09:31;25.25;;;18.00;;
53925;SDS011;39836;52.754;6.866;2023-12-14T12:12:01;25.25;;;17.85;;
53925;SDS011;39836;52.754;6.866;2023-12-14T12:14:30;27.23;;;17.15;;
53925;SDS011;39836;52.754;6.866;2023-12-14T12:16:55;25.45;;;18.38;;
53925;SDS011;39836;52.754;6.866;2023-12-14T12:19:21;26.90;;;17.73;;
53925;SDS011;39836;52.754;6.866;2023-12-14T12:21:47;23.38;;;17.20;;
53925;SDS011;39836;52.754;6.866;2023-12-14T12:24:12;26.05;;;18.80;;
53925;SDS011;39836;52.754;6.866;2023-12-14T12:26:38;27.15;;;18.05;;
53925;SDS011;39836;52.754;6.866;2023-12-14T12:29:04;24.27;;;17.67;;
53925;SDS011;39836;52.754;6.866;2023-12-14T12:31:31;32.10;;;18.88;;
53925;SDS011;39836;52.754;6.866;2023-12-14T12:33:57;31.42;;;19.63;;
53925;SDS011;39836;52.754;6.866;2023-12-14T12:36:22;28.13;;;18.80;;
53925;SDS011;39836;52.754;6.866;2023-12-14T12:38:48;24.48;;;19.23;;
53925;SDS011;39836;52.754;6.866;2023-12-14T12:41:14;23.45;;;18.63;;
53925;SDS011;39836;52.754;6.866;2023-12-14T12:43:39;29.58;;;18.85;;
53925;SDS011;39836;52.754;6.866;2023-12-14T12:46:05;27.60;;;20.23;;
53925;SDS011;39836;52.754;6.866;2023-12-14T12:48:30;25.70;;;18.50;;
53925;SDS011;39836;52.754;6.866;2023-12-14T12:50:56;24.65;;;17.88;;
53925;SDS011;39836;52.754;6.866;2023-12-14T12:53:22;24.70;;;17.80;;
53925;SDS011;39836;52.754;6.866;2023-12-14T12:55:47;26.90;;;19.10;;
53925;SDS011;39836;52.754;6.866;2023-12-14T12:58:13;28.48;;;19.30;;
53925;SDS011;39836;52.754;6.866;2023-12-14T13:00:39;28.40;;;19.77;;
53925;SDS011;39836;52.754;6.866;2023-12-14T13:03:05;26.95;;;19.45;;
53925;SDS011;39836;52.754;6.866;2023-12-14T13:05:31;25.17;;;17.63;;
53925;SDS011;39836;52.754;6.866;2023-12-14T13:07:56;26.17;;;18.05;;
53925;SDS011;39836;52.754;6.866;2023-12-14T13:10:23;25.27;;;18.10;;
53925;SDS011;39836;52.754;6.866;2023-12-14T13:12:52;30.95;;;19.55;;
53925;SDS011;39836;52.754;6.866;2023-12-14T13:15:18;24.20;;;18.33;;
53925;SDS011;39836;52.754;6.866;2023-12-14T13:17:44;24.42;;;18.80;;
53925;SDS011;39836;52.754;6.866;2023-12-14T13:20:09;24.60;;;18.40;;
53925;SDS011;39836;52.754;6.866;2023-12-14T13:22:35;25.60;;;18.48;;
53925;SDS011;39836;52.754;6.866;2023-12-14T13:25:01;28.65;;;20.02;;
53925;SDS011;39836;52.754;6.866;2023-12-14T13:27:28;25.42;;;19.38;;
53925;SDS011;39836;52.754;6.866;2023-12-14T13:29:53;23.73;;;18.23;;
53925;SDS011;39836;52.754;6.866;2023-12-14T13:32:20;26.45;;;18.60;;
53925;SDS011;39836;52.754;6.866;2023-12-14T13:34:45;26.33;;;19.08;;
53925;SDS011;39836;52.754;6.866;2023-12-14T13:37:11;25.15;;;18.58;;
53925;SDS011;39836;52.754;6.866;2023-12-14T13:39:37;24.85;;;18.95;;
53925;SDS011;39836;52.754;6.866;2023-12-14T13:42:06;24.45;;;19.33;;
53925;SDS011;39836;52.754;6.866;2023-12-14T13:44:32;25.33;;;19.05;;
53925;SDS011;39836;52.754;6.866;2023-12-14T13:47:00;27.02;;;20.20;;
53925;SDS011;39836;52.754;6.866;2023-12-14T13:49:26;26.50;;;19.40;;
53925;SDS011;39836;52.754;6.866;2023-12-14T13:51:52;24.70;;;18.55;;
53925;SDS011;39836;52.754;6.866;2023-12-14T13:54:18;26.33;;;20.20;;
53925;SDS011;39836;52.754;6.866;2023-12-14T13:56:43;30.60;;;20.02;;
53925;SDS011;39836;52.754;6.866;2023-12-14T13:59:09;26.08;;;19.70;;
53925;SDS011;39836;52.754;6.866;2023-12-14T14:01:35;26.65;;;20.33;;
53925;SDS011;39836;52.754;6.866;2023-12-14T14:04:01;26.50;;;19.92;;
53925;SDS011;39836;52.754;6.866;2023-12-14T14:06:27;26.95;;;19.83;;
53925;SDS011;39836;52.754;6.866;2023-12-14T14:08:52;26.63;;;20.38;;
53925;SDS011;39836;52.754;6.866;2023-12-14T14:11:20;25.50;;;20.23;;
53925;SDS011;39836;52.754;6.866;2023-12-14T14:13:46;29.60;;;20.50;;
53925;SDS011;39836;52.754;6.866;2023-12-14T14:16:11;31.10;;;20.80;;
53925;SDS011;39836;52.754;6.866;2023-12-14T14:18:37;26.88;;;20.40;;